Time;durP1;ratioP1;P1;durP2;ratioP2;P2;SDS_P1;SDS_P2;PMS_P1;PMS_P2;Temp;Humidity;BMP_temperature;BMP_pressure;BME280_temperature;BME280_humidity;BME280_pressure;Samples;Min_cycle;Max_cycle;Signal;HPM_P1;HPM_P2
2023/05/05 00:01:11;;;;;;;;;;;13.10;69.20;;;;;;5086076;28;19956;-76
2023/05/05 00:03:37;;;;;;;;;;;13.00;69.60;;;;;;5090657;28;19945;-77
2023/05/05 00:06:05;;;;;;;;;;;13.00;69.70;;;;;;5091810;28;19931;-63
2023/05/05 00:08:32;;;;;;;;;;;13.00;69.80;;;;;;5088491;28;19935;-64
2023/05/05 00:10:58;;;;;;;;;;;12.90;70.30;;;;;;5082556;28;20255;-76
2023/05/05 00:13:26;;;;;;;;;;;12.90;70.50;;;;;;5093843;28;19935;-77
2023/05/05 00:15:53;;;;;;;;;;;12.80;70.70;;;;;;5092241;28;19924;-69
2023/05/05 00:18:20;;;;;;;;;;;12.90;70.70;;;;;;5089232;28;19935;-68
2023/05/05 00:20:47;;;;;;;;;;;12.90;70.70;;;;;;5084989;28;20319;-67
2023/05/05 00:23:14;;;;;;;;;;;12.90;70.60;;;;;;5089485;28;19924;-68
2023/05/05 00:25:41;;;;;;;;;;;12.80;70.60;;;;;;5087585;28;19938;-66
2023/05/05 00:28:08;;;;;;;;;;;12.90;70.80;;;;;;5085234;28;19928;-66
2023/05/05 00:30:37;;;;;;;;;;;12.90;70.70;;;;;;5088640;28;19924;-66
2023/05/05 00:33:04;;;;;;;;;;;12.90;70.50;;;;;;5086777;28;20498;-66
2023/05/05 00:35:31;;;;;;;;;;;12.80;70.50;;;;;;5089573;28;20028;-69
2023/05/05 00:37:58;;;;;;;;;;;12.80;70.90;;;;;;5067917;28;20013;-69
2023/05/05 00:40:25;;;;;;;;;;;12.80;71.00;;;;;;5087671;28;19928;-66
2023/05/05 00:42:52;;;;;;;;;;;12.80;71.00;;;;;;5087404;28;19931;-66
2023/05/05 00:45:19;;;;;;;;;;;12.70;71.10;;;;;;5086206;28;19934;-66
2023/05/05 00:47:48;;;;;;;;;;;12.60;71.50;;;;;;5083902;28;19930;-67
2023/05/05 00:50:20;;;;;;;;;;;12.60;71.70;;;;;;5084303;28;19933;-66
2023/05/05 00:52:47;;;;;;;;;;;12.60;71.70;;;;;;5086347;28;19928;-66
2023/05/05 00:55:14;;;;;;;;;;;12.70;71.30;;;;;;5068731;28;19925;-65
2023/05/05 00:57:40;;;;;;;;;;;12.70;71.20;;;;;;5086055;28;19957;-63
2023/05/05 01:00:08;;;;;;;;;;;12.60;71.40;;;;;;5080638;28;19939;-63
2023/05/05 01:02:35;;;;;;;;;;;12.60;71.60;;;;;;5087728;28;19993;-65
2023/05/05 01:05:04;;;;;;;;;;;12.60;71.80;;;;;;5084144;28;19924;-65
2023/05/05 01:07:37;;;;;;;;;;;12.50;72.00;;;;;;5089353;28;19931;-62
2023/05/05 01:10:10;;;;;;;;;;;12.50;71.90;;;;;;5089885;28;20021;-62
2023/05/05 01:12:41;;;;;;;;;;;12.50;71.90;;;;;;5090224;28;19931;-77
2023/05/05 01:15:11;;;;;;;;;;;12.50;72.10;;;;;;5075817;28;19932;-78
2023/05/05 01:17:39;;;;;;;;;;;12.50;72.40;;;;;;5087392;28;19924;-63
2023/05/05 01:20:12;;;;;;;;;;;12.50;72.40;;;;;;5085249;28;20317;-62
2023/05/05 01:22:41;;;;;;;;;;;12.50;72.30;;;;;;5084876;28;20027;-64
2023/05/05 01:25:16;;;;;;;;;;;12.50;72.30;;;;;;5085881;28;19932;-63
2023/05/05 01:27:51;;;;;;;;;;;12.50;72.20;;;;;;5086849;28;20341;-63
2023/05/05 01:30:25;;;;;;;;;;;12.50;72.20;;;;;;5086841;28;19933;-63
2023/05/05 01:32:57;;;;;;;;;;;12.40;72.30;;;;;;5087900;28;19928;-62
2023/05/05 01:35:28;;;;;;;;;;;12.50;72.30;;;;;;5065655;28;19924;-63
2023/05/05 01:37:59;;;;;;;;;;;12.50;72.20;;;;;;5085351;28;19928;-63
2023/05/05 01:40:27;;;;;;;;;;;12.50;72.30;;;;;;5085808;28;20486;-69
2023/05/05 01:42:54;;;;;;;;;;;12.40;72.30;;;;;;5085763;28;19951;-68
2023/05/05 01:45:23;;;;;;;;;;;12.40;72.50;;;;;;5084198;28;19927;-68
2023/05/05 01:47:51;;;;;;;;;;;12.40;72.60;;;;;;5088420;28;20283;-70
2023/05/05 01:50:20;;;;;;;;;;;12.30;73.00;;;;;;5069054;28;20378;-69
2023/05/05 01:52:47;;;;;;;;;;;12.30;73.10;;;;;;5070748;28;19975;-69
2023/05/05 01:55:15;;;;;;;;;;;12.30;73.20;;;;;;5066207;28;19993;-68
2023/05/05 01:57:42;;;;;;;;;;;12.20;73.20;;;;;;5070442;28;19975;-68
2023/05/05 02:00:10;;;;;;;;;;;12.20;73.30;;;;;;5083226;28;19934;-68
2023/05/05 02:02:46;;;;;;;;;;;12.20;73.40;;;;;;5085900;28;20470;-69
2023/05/05 02:05:13;;;;;;;;;;;12.20;73.50;;;;;;5084257;28;19930;-69
2023/05/05 02:07:41;;;;;;;;;;;12.20;73.60;;;;;;5070130;28;19924;-68
2023/05/05 02:10:10;;;;;;;;;;;12.20;73.40;;;;;;5084356;28;19928;-68
2023/05/05 02:12:37;;;;;;;;;;;12.20;73.20;;;;;;5090331;28;19982;-69
2023/05/05 02:15:04;;;;;;;;;;;12.10;73.30;;;;;;5072677;28;19963;-69
2023/05/05 02:17:31;;;;;;;;;;;12.10;73.30;;;;;;5090237;28;19951;-68
2023/05/05 02:19:58;;;;;;;;;;;12.20;72.90;;;;;;5091464;28;19935;-68
2023/05/05 02:22:25;;;;;;;;;;;12.20;72.80;;;;;;5090283;28;19928;-69
2023/05/05 02:24:53;;;;;;;;;;;12.20;72.80;;;;;;5086961;28;19930;-69
2023/05/05 02:27:21;;;;;;;;;;;12.20;73.00;;;;;;5074782;28;20299;-63
2023/05/05 02:29:50;;;;;;;;;;;12.10;73.30;;;;;;5089687;28;19935;-63
2023/05/05 02:32:18;;;;;;;;;;;12.00;73.60;;;;;;5072085;28;20350;-66
2023/05/05 02:34:46;;;;;;;;;;;12.10;73.60;;;;;;5071033;28;19932;-66
2023/05/05 02:37:18;;;;;;;;;;;12.10;73.50;;;;;;5075486;28;19947;-67
2023/05/05 02:39:47;;;;;;;;;;;12.10;73.50;;;;;;5069617;28;19928;-67
2023/05/05 02:42:21;;;;;;;;;;;12.00;73.60;;;;;;5074695;28;19970;-66
2023/05/05 02:44:50;;;;;;;;;;;12.00;73.80;;;;;;5072455;28;20041;-67
2023/05/05 02:47:17;;;;;;;;;;;12.00;74.00;;;;;;5070215;28;19932;-68
2023/05/05 02:49:44;;;;;;;;;;;11.90;74.10;;;;;;5088142;28;19932;-67
2023/05/05 02:52:10;;;;;;;;;;;11.90;74.20;;;;;;5089179;28;19928;-78
2023/05/05 02:54:40;;;;;;;;;;;11.80;74.30;;;;;;5067317;28;19940;-77
2023/05/05 02:57:18;;;;;;;;;;;11.80;74.50;;;;;;5092950;28;20023;-77
2023/05/05 02:59:52;;;;;;;;;;;11.70;74.80;;;;;;5073552;28;19936;-77
2023/05/05 03:02:27;;;;;;;;;;;11.70;74.90;;;;;;5092476;28;19993;-69
2023/05/05 03:04:55;;;;;;;;;;;11.70;74.90;;;;;;5070098;28;19932;-70
2023/05/05 03:07:25;;;;;;;;;;;11.70;74.90;;;;;;5090412;28;19928;-68
2023/05/05 03:09:57;;;;;;;;;;;11.70;74.80;;;;;;5070655;28;20395;-66
2023/05/05 03:12:28;;;;;;;;;;;11.60;75.10;;;;;;5072844;28;19928;-65
2023/05/05 03:15:16;;;;;;;;;;;11.60;75.20;;;;;;5089083;28;19982;-65
2023/05/05 03:17:43;;;;;;;;;;;11.60;75.30;;;;;;5089832;28;19940;-65
2023/05/05 03:20:12;;;;;;;;;;;11.60;75.40;;;;;;5085412;28;19977;-65
2023/05/05 03:22:41;;;;;;;;;;;11.60;75.30;;;;;;5067512;28;19928;-70
2023/05/05 03:25:12;;;;;;;;;;;11.60;75.00;;;;;;5083645;28;19963;-69
2023/05/05 03:27:39;;;;;;;;;;;11.70;74.90;;;;;;5092098;28;19989;-62
2023/05/05 03:30:07;;;;;;;;;;;11.70;74.60;;;;;;5072598;28;19928;-62
2023/05/05 03:32:38;;;;;;;;;;;11.60;74.50;;;;;;5087392;28;20268;-68
2023/05/05 03:35:05;;;;;;;;;;;11.60;74.40;;;;;;5086492;28;20367;-69
2023/05/05 03:37:33;;;;;;;;;;;11.60;74.50;;;;;;5073319;28;19928;-67
2023/05/05 03:40:00;;;;;;;;;;;11.60;74.40;;;;;;5088731;28;19928;-67
2023/05/05 03:42:27;;;;;;;;;;;11.60;74.40;;;;;;5085657;28;20011;-68
2023/05/05 03:44:54;;;;;;;;;;;11.60;74.50;;;;;;5068549;28;19932;-68
2023/05/05 03:47:23;;;;;;;;;;;11.60;74.60;;;;;;5070675;28;19956;-65
2023/05/05 03:49:52;;;;;;;;;;;11.60;74.90;;;;;;5073259;28;19997;-66
2023/05/05 03:52:19;;;;;;;;;;;11.60;75.00;;;;;;5087256;28;19969;-65
2023/05/05 03:54:46;;;;;;;;;;;11.50;75.50;;;;;;5071224;28;19932;-65
2023/05/05 03:57:13;;;;;;;;;;;11.50;75.60;;;;;;5076511;28;19992;-78
2023/05/05 03:59:41;;;;;;;;;;;11.40;75.80;;;;;;5076281;28;20448;-77
2023/05/05 04:02:08;;;;;;;;;;;11.40;75.90;;;;;;5091306;28;19928;-65
2023/05/05 04:04:34;;;;;;;;;;;11.40;76.10;;;;;;5087486;28;19932;-66
2023/05/05 04:07:03;;;;;;;;;;;11.30;76.30;;;;;;5090546;28;19931;-70
2023/05/05 04:09:29;;;;;;;;;;;11.30;76.40;;;;;;5068743;28;19979;-69
2023/05/05 04:11:56;;;;;;;;;;;11.20;76.40;;;;;;5065593;28;19932;-68
2023/05/05 04:14:23;;;;;;;;;;;11.30;76.20;;;;;;5072594;28;19974;-66
2023/05/05 04:16:51;;;;;;;;;;;11.30;76.30;;;;;;5087456;28;19964;-66
2023/05/05 04:19:18;;;;;;;;;;;11.30;76.40;;;;;;5069508;28;19924;-65
2023/05/05 04:21:45;;;;;;;;;;;11.30;76.30;;;;;;5069404;28;20339;-66
2023/05/05 04:24:13;;;;;;;;;;;11.30;76.50;;;;;;5069225;28;20422;-65
2023/05/05 04:26:40;;;;;;;;;;;11.30;76.60;;;;;;5089978;28;19975;-64
2023/05/05 04:29:08;;;;;;;;;;;11.30;76.80;;;;;;5085547;28;20454;-64
2023/05/05 04:31:35;;;;;;;;;;;11.30;76.70;;;;;;5087400;28;19932;-65
2023/05/05 04:34:01;;;;;;;;;;;11.30;76.70;;;;;;5086198;28;20098;-65
2023/05/05 04:36:28;;;;;;;;;;;11.40;76.90;;;;;;5089154;28;19928;-66
2023/05/05 04:38:55;;;;;;;;;;;11.40;76.70;;;;;;5088117;28;19932;-66
2023/05/05 04:41:23;;;;;;;;;;;11.50;76.60;;;;;;5071103;28;19977;-68
2023/05/05 04:43:50;;;;;;;;;;;11.50;76.70;;;;;;5068374;28;19953;-68
2023/05/05 04:46:17;;;;;;;;;;;11.50;76.60;;;;;;5090836;28;19928;-79
2023/05/05 04:48:44;;;;;;;;;;;11.60;76.50;;;;;;5075558;28;20018;-78
2023/05/05 04:51:11;;;;;;;;;;;11.60;76.50;;;;;;5092738;28;19928;-62
2023/05/05 04:53:38;;;;;;;;;;;11.60;76.40;;;;;;5066211;28;19924;-62
2023/05/05 04:56:05;;;;;;;;;;;11.60;76.60;;;;;;5090468;28;19924;-66
2023/05/05 04:58:33;;;;;;;;;;;11.60;76.80;;;;;;5086031;28;19935;-67
2023/05/05 05:01:00;;;;;;;;;;;11.60;76.80;;;;;;5088207;28;19986;-62
2023/05/05 05:03:27;;;;;;;;;;;11.60;76.80;;;;;;5064504;28;19959;-61
2023/05/05 05:05:54;;;;;;;;;;;11.60;76.80;;;;;;5072197;28;20018;-79
2023/05/05 05:08:20;;;;;;;;;;;11.60;77.00;;;;;;5073908;28;19949;-78
2023/05/05 05:10:47;;;;;;;;;;;11.60;77.20;;;;;;5094189;28;20065;-68
2023/05/05 05:13:18;;;;;;;;;;;11.60;77.10;;;;;;5087525;28;19924;-67
2023/05/05 05:15:47;;;;;;;;;;;11.60;77.10;;;;;;5085443;28;19935;-66
2023/05/05 05:18:14;;;;;;;;;;;11.60;77.00;;;;;;5088975;28;19928;-66
2023/05/05 05:20:41;;;;;;;;;;;11.60;76.90;;;;;;5087876;28;20011;-63
2023/05/05 05:23:08;;;;;;;;;;;11.70;76.90;;;;;;5085882;28;19928;-61
2023/05/05 05:25:40;;;;;;;;;;;11.70;76.80;;;;;;5069112;28;19928;-66
2023/05/05 05:28:07;;;;;;;;;;;11.70;76.80;;;;;;5084990;28;20353;-67
2023/05/05 05:30:34;;;;;;;;;;;11.70;76.70;;;;;;5069376;28;20030;-63
2023/05/05 05:33:05;;;;;;;;;;;11.70;76.70;;;;;;5087364;28;20029;-63
2023/05/05 05:35:32;;;;;;;;;;;11.70;76.70;;;;;;5084279;28;20436;-62
2023/05/05 05:37:59;;;;;;;;;;;11.80;76.70;;;;;;5071727;28;19967;-63
2023/05/05 05:40:26;;;;;;;;;;;11.80;76.50;;;;;;5087407;28;19924;-63
2023/05/05 05:42:53;;;;;;;;;;;11.90;76.50;;;;;;5089243;28;19974;-70
2023/05/05 05:45:20;;;;;;;;;;;11.90;76.40;;;;;;5066819;28;20375;-70
2023/05/05 05:47:47;;;;;;;;;;;11.90;76.30;;;;;;5089686;28;20353;-71
2023/05/05 05:50:15;;;;;;;;;;;11.90;76.00;;;;;;5071579;28;19930;-71
2023/05/05 05:52:42;;;;;;;;;;;12.00;75.80;;;;;;5072292;28;20375;-66
2023/05/05 05:55:10;;;;;;;;;;;12.00;75.60;;;;;;5070178;28;19928;-68
2023/05/05 05:57:38;;;;;;;;;;;12.10;75.30;;;;;;5090523;28;19981;-72
2023/05/05 06:00:07;;;;;;;;;;;12.30;74.90;;;;;;5072564;28;19928;-71
2023/05/05 06:02:38;;;;;;;;;;;12.40;75.00;;;;;;5092017;28;19932;-71
2023/05/05 06:05:08;;;;;;;;;;;12.40;75.10;;;;;;5071403;28;19963;-71
2023/05/05 06:07:37;;;;;;;;;;;12.50;75.00;;;;;;5071680;28;19939;-67
2023/05/05 06:10:05;;;;;;;;;;;12.50;74.70;;;;;;5069401;28;19973;-67
2023/05/05 06:12:32;;;;;;;;;;;12.50;73.90;;;;;;5089595;28;19927;-62
2023/05/05 06:14:59;;;;;;;;;;;12.60;74.00;;;;;;5089737;28;19931;-62
2023/05/05 06:17:25;;;;;;;;;;;12.60;74.20;;;;;;5072916;28;20271;-62
2023/05/05 06:19:52;;;;;;;;;;;12.70;73.80;;;;;;5091460;28;20403;-63
2023/05/05 06:22:19;;;;;;;;;;;12.80;73.50;;;;;;5090015;28;19928;-62
2023/05/05 06:24:48;;;;;;;;;;;12.90;73.30;;;;;;5072133;28;19924;-62
2023/05/05 06:27:16;;;;;;;;;;;12.90;73.10;;;;;;5070735;28;19935;-62
2023/05/05 06:29:43;;;;;;;;;;;13.00;72.90;;;;;;5090704;28;19934;-62
2023/05/05 06:32:11;;;;;;;;;;;13.10;72.40;;;;;;5073283;28;19924;-66
2023/05/05 06:34:38;;;;;;;;;;;13.20;72.00;;;;;;5091283;28;20306;-66
2023/05/05 06:37:05;;;;;;;;;;;13.30;72.00;;;;;;5090323;28;19928;-70
2023/05/05 06:39:31;;;;;;;;;;;13.40;71.90;;;;;;5074921;28;20326;-70
2023/05/05 06:41:59;;;;;;;;;;;13.50;71.70;;;;;;5091015;28;19932;-67
2023/05/05 06:44:26;;;;;;;;;;;13.60;71.70;;;;;;5089885;28;19935;-68
2023/05/05 06:46:53;;;;;;;;;;;13.70;71.40;;;;;;5090238;28;19928;-67
2023/05/05 06:49:20;;;;;;;;;;;13.80;71.10;;;;;;5089746;28;19928;-67
2023/05/05 06:51:48;;;;;;;;;;;14.00;70.60;;;;;;5093782;28;19970;-79
2023/05/05 06:54:14;;;;;;;;;;;14.10;70.20;;;;;;5097925;28;20512;-85
2023/05/05 06:56:41;;;;;;;;;;;14.20;69.90;;;;;;5092237;28;20022;-62
2023/05/05 06:59:10;;;;;;;;;;;14.40;69.50;;;;;;5090113;28;19936;-62
2023/05/05 07:01:37;;;;;;;;;;;14.60;68.90;;;;;;5090693;28;19993;-63
2023/05/05 07:04:04;;;;;;;;;;;14.60;69.10;;;;;;5087386;28;20122;-62
2023/05/05 07:06:30;;;;;;;;;;;14.70;69.00;;;;;;5071921;28;19928;-62
2023/05/05 07:08:57;;;;;;;;;;;14.80;68.20;;;;;;5090287;28;20027;-62
2023/05/05 07:11:24;;;;;;;;;;;15.00;67.70;;;;;;5090645;28;19934;-68
2023/05/05 07:13:51;;;;;;;;;;;15.20;67.70;;;;;;5089170;28;19928;-67
2023/05/05 07:16:19;;;;;;;;;;;15.40;67.10;;;;;;5087936;28;19951;-62
2023/05/05 07:18:46;;;;;;;;;;;15.50;66.80;;;;;;5088953;28;19935;-63
2023/05/05 07:21:13;;;;;;;;;;;15.60;66.50;;;;;;5092241;28;20363;-82
2023/05/05 07:23:39;;;;;;;;;;;15.80;65.40;;;;;;5099125;28;19928;-82
2023/05/05 07:26:06;;;;;;;;;;;16.00;64.30;;;;;;5097715;28;19928;-65
2023/05/05 07:28:33;;;;;;;;;;;16.20;64.40;;;;;;5090392;28;20000;-66
2023/05/05 07:31:00;;;;;;;;;;;16.40;63.40;;;;;;5087460;28;19995;-64
2023/05/05 07:33:28;;;;;;;;;;;16.50;63.30;;;;;;5085042;28;19932;-62
2023/05/05 07:35:55;;;;;;;;;;;16.60;62.50;;;;;;5089302;28;19924;-65
2023/05/05 07:38:21;;;;;;;;;;;16.80;62.00;;;;;;5086524;28;19969;-65
2023/05/05 07:40:48;;;;;;;;;;;16.90;61.80;;;;;;5093328;28;20421;-82
2023/05/05 07:43:15;;;;;;;;;;;17.00;61.90;;;;;;5098449;28;20077;-82
2023/05/05 07:45:42;;;;;;;;;;;17.00;61.90;;;;;;5097083;28;19935;-68
2023/05/05 07:48:08;;;;;;;;;;;17.00;60.80;;;;;;5087900;28;19935;-68
2023/05/05 07:50:36;;;;;;;;;;;17.10;60.40;;;;;;5089697;28;19928;-63
2023/05/05 07:53:03;;;;;;;;;;;17.20;60.40;;;;;;5071728;28;20322;-63
2023/05/05 07:55:30;;;;;;;;;;;17.40;60.40;;;;;;5089300;28;19932;-68
2023/05/05 07:57:57;;;;;;;;;;;17.60;60.60;;;;;;5090227;28;19931;-68
2023/05/05 08:00:23;;;;;;;;;;;17.60;60.10;;;;;;5088992;28;19939;-67
2023/05/05 08:02:50;;;;;;;;;;;17.70;60.50;;;;;;5087734;28;19938;-67
2023/05/05 08:05:17;;;;;;;;;;;17.80;60.30;;;;;;5086710;28;20375;-67
2023/05/05 08:07:45;;;;;;;;;;;18.10;60.00;;;;;;5089768;28;20439;-63
2023/05/05 08:10:12;;;;;;;;;;;18.10;59.90;;;;;;5087933;28;20377;-64
2023/05/05 08:12:39;;;;;;;;;;;18.10;60.40;;;;;;5088418;28;19932;-68
2023/05/05 08:15:06;;;;;;;;;;;18.30;60.50;;;;;;5088469;28;20011;-67
2023/05/05 08:17:43;;;;;;;;;;;18.30;60.00;;;;;;5087889;28;19924;-68
2023/05/05 08:20:10;;;;;;;;;;;18.40;59.90;;;;;;5089231;28;20302;-68
2023/05/05 08:22:36;;;;;;;;;;;18.50;60.00;;;;;;5089743;28;19924;-72
2023/05/05 08:25:05;;;;;;;;;;;18.60;59.30;;;;;;5086941;28;19931;-73
2023/05/05 08:27:34;;;;;;;;;;;18.70;59.40;;;;;;5088697;28;19979;-68
2023/05/05 08:30:00;;;;;;;;;;;18.90;59.90;;;;;;5087047;28;19935;-67
2023/05/05 08:32:27;;;;;;;;;;;19.10;59.70;;;;;;5090917;28;19930;-82
2023/05/05 08:34:54;;;;;;;;;;;19.20;59.20;;;;;;5091084;28;20016;-80
2023/05/05 08:37:21;;;;;;;;;;;19.30;58.90;;;;;;5092006;28;19934;-80
2023/05/05 08:39:48;;;;;;;;;;;19.50;59.00;;;;;;5093044;28;19932;-80
2023/05/05 08:42:16;;;;;;;;;;;19.50;58.40;;;;;;5090115;28;20014;-68
2023/05/05 08:44:43;;;;;;;;;;;19.70;58.50;;;;;;5086304;28;20008;-67
2023/05/05 08:47:10;;;;;;;;;;;19.80;58.30;;;;;;5088460;28;19975;-69
2023/05/05 08:49:40;;;;;;;;;;;19.90;57.80;;;;;;5086045;28;19928;-68
2023/05/05 08:52:08;;;;;;;;;;;19.90;58.10;;;;;;5087422;28;20058;-69
2023/05/05 08:54:35;;;;;;;;;;;20.10;57.50;;;;;;5090770;28;20023;-69
2023/05/05 08:57:05;;;;;;;;;;;20.10;58.10;;;;;;5088803;28;19928;-67
2023/05/05 08:59:33;;;;;;;;;;;20.20;58.20;;;;;;5081956;28;21359;-69
2023/05/05 09:02:01;;;;;;;;;;;20.20;58.10;;;;;;5090276;28;19928;-68
2023/05/05 09:04:28;;;;;;;;;;;20.20;57.30;;;;;;5085899;28;19928;-69
2023/05/05 09:06:57;;;;;;;;;;;20.10;57.20;;;;;;5089181;28;19928;-67
2023/05/05 09:09:24;;;;;;;;;;;20.10;57.80;;;;;;5088503;28;20395;-66
2023/05/05 09:11:51;;;;;;;;;;;20.10;58.20;;;;;;5086416;28;19935;-68
2023/05/05 09:14:18;;;;;;;;;;;20.10;58.50;;;;;;5088932;28;19943;-68
2023/05/05 09:16:46;;;;;;;;;;;20.10;58.80;;;;;;5084077;28;19928;-63
2023/05/05 09:19:13;;;;;;;;;;;20.10;58.80;;;;;;5085793;28;19939;-63
2023/05/05 09:21:46;;;;;;;;;;;20.00;58.20;;;;;;5086928;28;20392;-62
2023/05/05 09:24:14;;;;;;;;;;;19.90;59.00;;;;;;5087636;28;19939;-63
2023/05/05 09:26:42;;;;;;;;;;;19.90;59.20;;;;;;5084863;28;19932;-63
2023/05/05 09:29:08;;;;;;;;;;;20.00;58.60;;;;;;5087511;28;20230;-63
2023/05/05 09:31:36;;;;;;;;;;;20.00;59.10;;;;;;5085666;28;20007;-64
2023/05/05 09:34:15;;;;;;;;;;;20.00;59.10;;;;;;5067925;28;19942;-62
2023/05/05 09:36:43;;;;;;;;;;;20.10;59.90;;;;;;5088529;28;19932;-63
2023/05/05 09:39:10;;;;;;;;;;;20.10;59.50;;;;;;5085809;28;19954;-65
2023/05/05 09:41:37;;;;;;;;;;;20.10;59.20;;;;;;5086475;28;19924;-63
2023/05/05 09:44:04;;;;;;;;;;;20.10;59.10;;;;;;5085594;28;19924;-64
2023/05/05 09:46:30;;;;;;;;;;;20.20;59.30;;;;;;5085154;28;20786;-64
2023/05/05 09:49:11;;;;;;;;;;;20.20;58.90;;;;;;5086803;28;19928;-61
2023/05/05 09:51:39;;;;;;;;;;;20.20;59.60;;;;;;5087820;28;19924;-63
2023/05/05 09:54:06;;;;;;;;;;;20.30;59.20;;;;;;5086560;28;19950;-63
2023/05/05 09:56:37;;;;;;;;;;;20.40;59.00;;;;;;5089045;28;19924;-64
2023/05/05 09:59:10;;;;;;;;;;;20.40;59.00;;;;;;5085741;28;19929;-63
2023/05/05 10:01:37;;;;;;;;;;;20.50;59.30;;;;;;5087117;28;20034;-64
2023/05/05 10:04:04;;;;;;;;;;;20.50;58.90;;;;;;5084847;28;19976;-63
2023/05/05 10:06:42;;;;;;;;;;;20.40;59.40;;;;;;5068962;28;19924;-64
2023/05/05 10:09:09;;;;;;;;;;;20.40;59.10;;;;;;5087112;28;19955;-63
2023/05/05 10:11:36;;;;;;;;;;;20.50;59.80;;;;;;5087128;28;19928;-64
2023/05/05 10:14:05;;;;;;;;;;;20.70;59.20;;;;;;5067383;28;19940;-64
2023/05/05 10:16:32;;;;;;;;;;;20.90;58.70;;;;;;5088490;28;19924;-65
2023/05/05 10:19:01;;;;;;;;;;;21.10;58.90;;;;;;5084915;28;20314;-65
2023/05/05 10:21:31;;;;;;;;;;;21.20;58.70;;;;;;5085191;28;19928;-63
2023/05/05 10:24:03;;;;;;;;;;;21.40;58.70;;;;;;5082814;28;19924;-63
2023/05/05 10:26:34;;;;;;;;;;;21.60;58.70;;;;;;5087126;28;20303;-64
2023/05/05 10:29:02;;;;;;;;;;;21.80;58.80;;;;;;5087771;28;20037;-64
2023/05/05 10:31:37;;;;;;;;;;;22.00;57.80;;;;;;5085761;28;19928;-64
2023/05/05 10:34:05;;;;;;;;;;;22.10;58.40;;;;;;5091540;28;19932;-64
2023/05/05 10:36:32;;;;;;;;;;;22.30;57.70;;;;;;5091436;28;19951;-64
2023/05/05 10:39:01;;;;;;;;;;;22.30;57.90;;;;;;5086970;28;19928;-64
2023/05/05 10:41:29;;;;;;;;;;;22.40;57.40;;;;;;5092068;28;19924;-64
2023/05/05 10:43:56;;;;;;;;;;;22.40;57.30;;;;;;5086436;28;19939;-64
2023/05/05 10:46:23;;;;;;;;;;;22.30;57.60;;;;;;5088859;28;19941;-64
2023/05/05 10:48:55;;;;;;;;;;;22.30;57.40;;;;;;5090188;28;19932;-64
2023/05/05 10:51:26;;;;;;;;;;;22.30;57.30;;;;;;5091420;28;19924;-64
2023/05/05 10:53:56;;;;;;;;;;;22.30;56.90;;;;;;5089640;28;19935;-66
2023/05/05 10:56:26;;;;;;;;;;;22.20;57.90;;;;;;5088819;28;19970;-68
2023/05/05 10:58:53;;;;;;;;;;;22.30;57.30;;;;;;5089999;28;19924;-69
2023/05/05 11:01:30;;;;;;;;;;;22.40;57.70;;;;;;5088769;28;19932;-64
2023/05/05 11:04:15;;;;;;;;;;;22.50;57.00;;;;;;5087790;28;19924;-64
2023/05/05 11:07:05;;;;;;;;;;;22.60;56.10;;;;;;5091865;28;19931;-73
2023/05/05 11:09:32;;;;;;;;;;;22.60;55.30;;;;;;5087905;28;19966;-73
2023/05/05 11:12:03;;;;;;;;;;;22.60;55.10;;;;;;5091406;28;19928;-64
2023/05/05 11:14:30;;;;;;;;;;;22.60;55.10;;;;;;5089469;28;20402;-63
2023/05/05 11:16:57;;;;;;;;;;;22.50;55.00;;;;;;5089322;28;19939;-63
2023/05/05 11:19:42;;;;;;;;;;;22.50;55.20;;;;;;5089184;28;19928;-64
2023/05/05 11:22:09;;;;;;;;;;;22.60;55.00;;;;;;5090224;28;19932;-69
2023/05/05 11:24:36;;;;;;;;;;;22.60;54.50;;;;;;5084546;28;19931;-71
2023/05/05 11:27:05;;;;;;;;;;;22.60;54.10;;;;;;5089957;28;19924;-66
2023/05/05 11:29:46;;;;;;;;;;;22.60;54.20;;;;;;5089278;28;19930;-65
2023/05/05 11:32:14;;;;;;;;;;;22.60;54.30;;;;;;5086609;28;19931;-70
2023/05/05 11:34:48;;;;;;;;;;;22.50;54.80;;;;;;5089789;28;19939;-70
2023/05/05 11:37:19;;;;;;;;;;;22.60;54.00;;;;;;5090321;28;19924;-69
2023/05/05 11:39:51;;;;;;;;;;;22.70;54.30;;;;;;5090359;28;20031;-70
2023/05/05 11:42:25;;;;;;;;;;;22.70;54.20;;;;;;5088939;28;19924;-70
2023/05/05 11:44:52;;;;;;;;;;;22.70;53.90;;;;;;5067210;28;19970;-70
2023/05/05 11:47:40;;;;;;;;;;;22.70;53.60;;;;;;5088218;28;19924;-66
2023/05/05 11:50:17;;;;;;;;;;;22.60;54.60;;;;;;5088593;28;20394;-67
2023/05/05 11:52:44;;;;;;;;;;;22.60;53.30;;;;;;5089258;28;19931;-71
2023/05/05 11:55:11;;;;;;;;;;;22.60;53.10;;;;;;5089405;28;20332;-69
2023/05/05 11:57:39;;;;;;;;;;;22.60;51.90;;;;;;5091271;28;19934;-70
2023/05/05 12:00:07;;;;;;;;;;;22.60;52.30;;;;;;5084887;28;19932;-68
2023/05/05 12:02:34;;;;;;;;;;;22.60;51.90;;;;;;5087829;28;19924;-70
2023/05/05 12:05:01;;;;;;;;;;;22.60;51.40;;;;;;5081762;28;20019;-69
2023/05/05 12:07:32;;;;;;;;;;;22.60;52.10;;;;;;5088784;28;19924;-68
2023/05/05 12:09:59;;;;;;;;;;;22.80;51.40;;;;;;5087335;28;19971;-70
2023/05/05 12:12:36;;;;;;;;;;;22.80;51.10;;;;;;5085018;28;19963;-64
2023/05/05 12:15:05;;;;;;;;;;;22.90;51.90;;;;;;5087436;28;19932;-64
2023/05/05 12:17:39;;;;;;;;;;;22.90;52.10;;;;;;5090324;28;19982;-67
2023/05/05 12:20:07;;;;;;;;;;;23.00;50.70;;;;;;5087098;28;20263;-67
2023/05/05 12:22:34;;;;;;;;;;;23.00;50.30;;;;;;5088847;28;19928;-69
2023/05/05 12:25:02;;;;;;;;;;;23.00;50.60;;;;;;5082222;28;19935;-68
2023/05/05 12:27:29;;;;;;;;;;;23.10;51.00;;;;;;5089560;28;19924;-72
2023/05/05 12:29:57;;;;;;;;;;;23.20;49.40;;;;;;5083754;28;19924;-74
2023/05/05 12:32:26;;;;;;;;;;;23.10;50.60;;;;;;5082447;28;19939;-69
2023/05/05 12:34:55;;;;;;;;;;;23.10;48.50;;;;;;5078419;28;20398;-69
2023/05/05 12:37:22;;;;;;;;;;;23.20;47.10;;;;;;5082303;28;20598;-67
2023/05/05 12:39:49;;;;;;;;;;;23.30;47.80;;;;;;5087554;28;19928;-67
2023/05/05 12:42:16;;;;;;;;;;;23.10;48.40;;;;;;5085085;28;19957;-64
2023/05/05 12:44:43;;;;;;;;;;;23.00;45.40;;;;;;5085407;28;19942;-63
2023/05/05 12:47:11;;;;;;;;;;;23.00;45.20;;;;;;5089319;28;19939;-80
2023/05/05 12:49:51;;;;;;;;;;;23.00;44.10;;;;;;5087316;28;19938;-79
2023/05/05 12:52:19;;;;;;;;;;;22.90;44.90;;;;;;5089481;28;20798;-64
2023/05/05 12:54:55;;;;;;;;;;;22.90;45.40;;;;;;5084420;28;20961;-63
2023/05/05 12:57:22;;;;;;;;;;;22.90;46.60;;;;;;5085730;28;19928;-63
2023/05/05 12:59:49;;;;;;;;;;;23.00;45.90;;;;;;5084894;28;19989;-63
2023/05/05 13:02:16;;;;;;;;;;;23.10;45.10;;;;;;5066387;28;19928;-64
2023/05/05 13:04:51;;;;;;;;;;;23.20;46.10;;;;;;5088042;28;19928;-62
2023/05/05 13:29:50;;;;;;;;;;;22.80;49.70;;;;;;5008850;23;19930;-74
2023/05/05 13:32:17;;;;;;;;;;;22.80;48.90;;;;;;4988227;28;19925;-65
2023/05/05 13:34:44;;;;;;;;;;;22.70;48.70;;;;;;4987633;28;19934;-65
2023/05/05 13:37:10;;;;;;;;;;;22.80;48.30;;;;;;4990366;28;19956;-67
2023/05/05 13:39:37;;;;;;;;;;;22.90;46.90;;;;;;4990252;28;19937;-72
2023/05/05 13:42:04;;;;;;;;;;;22.80;46.90;;;;;;4990802;28;19925;-72
2023/05/05 13:44:31;;;;;;;;;;;22.70;47.60;;;;;;4989461;28;19925;-71
2023/05/05 13:46:59;;;;;;;;;;;22.80;48.20;;;;;;4991191;28;19930;-71
2023/05/05 13:49:25;;;;;;;;;;;22.80;48.90;;;;;;4983724;28;19941;-75
2023/05/05 13:51:52;;;;;;;;;;;22.80;48.10;;;;;;4982986;28;20308;-73
2023/05/05 13:54:19;;;;;;;;;;;22.80;49.00;;;;;;4981824;28;20512;-72
2023/05/05 13:56:46;;;;;;;;;;;22.80;48.30;;;;;;4984599;28;19933;-72
2023/05/05 13:59:13;;;;;;;;;;;22.90;48.10;;;;;;4990298;28;19926;-74
2023/05/05 14:01:39;;;;;;;;;;;22.70;47.40;;;;;;4987966;28;19926;-75
2023/05/05 14:04:08;;;;;;;;;;;22.80;46.10;;;;;;4990125;28;20390;-76
2023/05/05 14:06:35;;;;;;;;;;;22.80;47.90;;;;;;4989763;28;19930;-77
2023/05/05 14:09:04;;;;;;;;;;;22.80;46.00;;;;;;4993804;28;19930;-76
2023/05/05 14:11:31;;;;;;;;;;;22.70;46.80;;;;;;4989642;28;19933;-75
2023/05/05 14:13:58;;;;;;;;;;;22.60;47.40;;;;;;4989374;28;19940;-66
2023/05/05 14:16:25;;;;;;;;;;;22.60;47.00;;;;;;4993675;28;19933;-67
2023/05/05 14:18:52;;;;;;;;;;;22.60;46.70;;;;;;4992423;28;19940;-67
2023/05/05 14:21:20;;;;;;;;;;;22.70;45.70;;;;;;4986249;28;19937;-67
2023/05/05 14:23:46;;;;;;;;;;;22.70;47.60;;;;;;4983938;28;20494;-73
2023/05/05 14:26:13;;;;;;;;;;;22.60;47.50;;;;;;4989940;28;19933;-72
2023/05/05 14:28:41;;;;;;;;;;;22.80;45.10;;;;;;4982494;28;19938;-69
2023/05/05 14:31:07;;;;;;;;;;;22.90;44.90;;;;;;4982796;28;19926;-69
2023/05/05 14:33:34;;;;;;;;;;;23.00;45.40;;;;;;4988841;28;19933;-69
2023/05/05 14:36:01;;;;;;;;;;;23.00;46.30;;;;;;4983408;28;19926;-67
2023/05/05 14:38:29;;;;;;;;;;;22.90;46.40;;;;;;4979529;28;19930;-73
2023/05/05 14:40:56;;;;;;;;;;;23.00;45.40;;;;;;4983925;28;19933;-73
2023/05/05 14:43:22;;;;;;;;;;;22.90;45.10;;;;;;4987061;28;19972;-72
2023/05/05 14:45:49;;;;;;;;;;;22.90;45.80;;;;;;4988002;28;19944;-73